sensor_id;sensor_type;location;lat;lon;timestamp;temperature;humidity
71084;DHT22;58741;52.672;13.548;2023-05-07T00:01:54;8.90;99.90
71084;DHT22;58741;52.672;13.548;2023-05-07T00:04:20;9.00;99.90
71084;DHT22;58741;52.672;13.548;2023-05-07T00:06:46;9.00;99.90
71084;DHT22;58741;52.672;13.548;2023-05-07T00:09:11;9.00;99.90
71084;DHT22;58741;52.672;13.548;2023-05-07T00:11:38;8.90;99.90
71084;DHT22;58741;52.672;13.548;2023-05-07T00:14:03;9.00;99.90
71084;DHT22;58741;52.672;13.548;2023-05-07T00:16:29;9.00;99.90
71084;DHT22;58741;52.672;13.548;2023-05-07T00:18:55;9.00;99.90
71084;DHT22;58741;52.672;13.548;2023-05-07T00:21:21;8.90;99.90
71084;DHT22;58741;52.672;13.548;2023-05-07T00:23:47;9.00;99.90
71084;DHT22;58741;52.672;13.548;2023-05-07T00:26:15;8.90;99.90
71084;DHT22;58741;52.672;13.548;2023-05-07T00:28:42;9.00;99.90
71084;DHT22;58741;52.672;13.548;2023-05-07T00:31:08;8.90;99.90
71084;DHT22;58741;52.672;13.548;2023-05-07T00:33:34;8.90;99.90
71084;DHT22;58741;52.672;13.548;2023-05-07T00:36:00;8.90;99.90
71084;DHT22;58741;52.672;13.548;2023-05-07T00:38:27;8.90;99.90
71084;DHT22;58741;52.672;13.548;2023-05-07T00:40:53;8.90;99.90
71084;DHT22;58741;52.672;13.548;2023-05-07T00:43:19;8.90;99.90
71084;DHT22;58741;52.672;13.548;2023-05-07T00:45:44;8.90;99.90
71084;DHT22;58741;52.672;13.548;2023-05-07T00:48:11;8.90;99.90
71084;DHT22;58741;52.672;13.548;2023-05-07T00:50:36;8.90;99.90
71084;DHT22;58741;52.672;13.548;2023-05-07T00:53:02;8.90;99.90
71084;DHT22;58741;52.672;13.548;2023-05-07T00:55:29;8.90;99.90
71084;DHT22;58741;52.672;13.548;2023-05-07T00:57:55;8.90;99.90
71084;DHT22;58741;52.672;13.548;2023-05-07T01:00:21;8.90;99.90
71084;DHT22;58741;52.672;13.548;2023-05-07T01:02:47;8.90;99.90
71084;DHT22;58741;52.672;13.548;2023-05-07T01:05:15;8.90;99.90
71084;DHT22;58741;52.672;13.548;2023-05-07T01:07:47;8.90;99.90
71084;DHT22;58741;52.672;13.548;2023-05-07T01:10:17;8.90;99.90
71084;DHT22;58741;52.672;13.548;2023-05-07T01:12:47;8.90;99.90
71084;DHT22;58741;52.672;13.548;2023-05-07T01:15:16;8.90;99.90
71084;DHT22;58741;52.672;13.548;2023-05-07T01:17:43;8.90;99.90
71084;DHT22;58741;52.672;13.548;2023-05-07T01:20:20;8.90;99.90
71084;DHT22;58741;52.672;13.548;2023-05-07T01:22:47;8.90;99.90
71084;DHT22;58741;52.672;13.548;2023-05-07T01:25:14;8.90;99.90
71084;DHT22;58741;52.672;13.548;2023-05-07T01:27:48;8.90;99.90
71084;DHT22;58741;52.672;13.548;2023-05-07T01:30:15;8.90;99.90
71084;DHT22;58741;52.672;13.548;2023-05-07T01:32:52;8.90;99.90
71084;DHT22;58741;52.672;13.548;2023-05-07T01:35:32;8.90;99.90
71084;DHT22;58741;52.672;13.548;2023-05-07T01:38:00;8.80;99.90
71084;DHT22;58741;52.672;13.548;2023-05-07T01:40:27;8.90;99.90
71084;DHT22;58741;52.672;13.548;2023-05-07T01:43:01;8.80;99.90
71084;DHT22;58741;52.672;13.548;2023-05-07T01:45:27;8.90;99.90
71084;DHT22;58741;52.672;13.548;2023-05-07T01:48:03;8.80;99.90
71084;DHT22;58741;52.672;13.548;2023-05-07T01:50:32;8.80;99.90
71084;DHT22;58741;52.672;13.548;2023-05-07T01:52:59;8.80;99.90
71084;DHT22;58741;52.672;13.548;2023-05-07T01:55:25;8.80;99.90
71084;DHT22;58741;52.672;13.548;2023-05-07T01:57:56;8.80;99.90
71084;DHT22;58741;52.672;13.548;2023-05-07T02:00:22;8.80;99.90
71084;DHT22;58741;52.672;13.548;2023-05-07T02:02:54;8.80;99.90
71084;DHT22;58741;52.672;13.548;2023-05-07T02:05:29;8.80;99.90
71084;DHT22;58741;52.672;13.548;2023-05-07T02:08:00;8.80;99.90
71084;DHT22;58741;52.672;13.548;2023-05-07T02:10:27;8.80;99.90
71084;DHT22;58741;52.672;13.548;2023-05-07T02:12:53;8.80;99.90
71084;DHT22;58741;52.672;13.548;2023-05-07T02:15:18;8.80;99.90
71084;DHT22;58741;52.672;13.548;2023-05-07T02:18:04;8.80;99.90
71084;DHT22;58741;52.672;13.548;2023-05-07T02:20:34;8.80;99.90
71084;DHT22;58741;52.672;13.548;2023-05-07T02:23:33;8.70;99.90
71084;DHT22;58741;52.672;13.548;2023-05-07T02:26:00;8.70;99.90
71084;DHT22;58741;52.672;13.548;2023-05-07T02:28:32;8.70;99.90
71084;DHT22;58741;52.672;13.548;2023-05-07T02:31:03;8.70;99.90
71084;DHT22;58741;52.672;13.548;2023-05-07T02:33:31;8.70;99.90
71084;DHT22;58741;52.672;13.548;2023-05-07T02:36:05;8.70;99.90
71084;DHT22;58741;52.672;13.548;2023-05-07T02:38:33;8.70;99.90
71084;DHT22;58741;52.672;13.548;2023-05-07T02:40:59;8.70;99.90
71084;DHT22;58741;52.672;13.548;2023-05-07T02:43:24;8.70;99.90
71084;DHT22;58741;52.672;13.548;2023-05-07T02:46:08;8.70;99.90
71084;DHT22;58741;52.672;13.548;2023-05-07T02:48:38;8.70;99.90
71084;DHT22;58741;52.672;13.548;2023-05-07T02:51:04;8.70;99.90
71084;DHT22;58741;52.672;13.548;2023-05-07T02:53:31;8.70;99.90
71084;DHT22;58741;52.672;13.548;2023-05-07T02:55:59;8.70;99.90
71084;DHT22;58741;52.672;13.548;2023-05-07T02:58:25;8.60;99.90
71084;DHT22;58741;52.672;13.548;2023-05-07T03:00:51;8.70;99.90
71084;DHT22;58741;52.672;13.548;2023-05-07T03:03:34;8.70;99.90
71084;DHT22;58741;52.672;13.548;2023-05-07T03:06:00;8.60;99.90
71084;DHT22;58741;52.672;13.548;2023-05-07T03:08:26;8.60;99.90
71084;DHT22;58741;52.672;13.548;2023-05-07T03:10:51;8.60;99.90
71084;DHT22;58741;52.672;13.548;2023-05-07T03:13:18;8.70;99.90
71084;DHT22;58741;52.672;13.548;2023-05-07T03:15:43;8.60;99.90
71084;DHT22;58741;52.672;13.548;2023-05-07T03:18:09;8.60;99.90
71084;DHT22;58741;52.672;13.548;2023-05-07T03:20:35;8.60;99.90
71084;DHT22;58741;52.672;13.548;2023-05-07T03:23:02;8.60;99.90
71084;DHT22;58741;52.672;13.548;2023-05-07T03:25:28;8.60;99.90
71084;DHT22;58741;52.672;13.548;2023-05-07T03:27:55;8.60;99.90
71084;DHT22;58741;52.672;13.548;2023-05-07T03:30:24;8.60;99.90
71084;DHT22;58741;52.672;13.548;2023-05-07T03:32:50;8.60;99.90
71084;DHT22;58741;52.672;13.548;2023-05-07T03:35:16;8.60;99.90
71084;DHT22;58741;52.672;13.548;2023-05-07T03:37:42;8.60;99.90
71084;DHT22;58741;52.672;13.548;2023-05-07T03:40:10;8.60;99.90
71084;DHT22;58741;52.672;13.548;2023-05-07T03:42:43;8.60;99.90
71084;DHT22;58741;52.672;13.548;2023-05-07T03:45:10;8.60;99.90
71084;DHT22;58741;52.672;13.548;2023-05-07T03:47:38;8.60;99.90
71084;DHT22;58741;52.672;13.548;2023-05-07T03:50:06;8.60;99.90
71084;DHT22;58741;52.672;13.548;2023-05-07T03:52:32;8.60;99.90
71084;DHT22;58741;52.672;13.548;2023-05-07T03:55:00;8.60;99.90
71084;DHT22;58741;52.672;13.548;2023-05-07T03:57:26;8.60;99.90
71084;DHT22;58741;52.672;13.548;2023-05-07T03:59:52;8.50;99.90
71084;DHT22;58741;52.672;13.548;2023-05-07T04:02:18;8.60;99.90
71084;DHT22;58741;52.672;13.548;2023-05-07T04:04:44;8.60;99.90
71084;DHT22;58741;52.672;13.548;2023-05-07T04:07:10;8.60;99.90
71084;DHT22;58741;52.672;13.548;2023-05-07T04:09:39;8.60;99.90
71084;DHT22;58741;52.672;13.548;2023-05-07T04:12:05;8.60;99.90
71084;DHT22;58741;52.672;13.548;2023-05-07T04:14:31;8.60;99.90
71084;DHT22;58741;52.672;13.548;2023-05-07T04:16:59;8.50;99.90
71084;DHT22;58741;52.672;13.548;2023-05-07T04:19:25;8.50;99.90
71084;DHT22;58741;52.672;13.548;2023-05-07T04:21:52;8.60;99.90
71084;DHT22;58741;52.672;13.548;2023-05-07T04:24:18;8.60;99.90
71084;DHT22;58741;52.672;13.548;2023-05-07T04:26:44;8.60;99.90
71084;DHT22;58741;52.672;13.548;2023-05-07T04:29:10;8.60;99.90
71084;DHT22;58741;52.672;13.548;2023-05-07T04:31:36;8.60;99.90
71084;DHT22;58741;52.672;13.548;2023-05-07T04:34:02;8.60;99.90
71084;DHT22;58741;52.672;13.548;2023-05-07T04:36:28;8.60;99.90
71084;DHT22;58741;52.672;13.548;2023-05-07T04:38:59;8.60;99.90
71084;DHT22;58741;52.672;13.548;2023-05-07T04:41:26;8.60;99.90
71084;DHT22;58741;52.672;13.548;2023-05-07T04:43:52;8.60;99.90
71084;DHT22;58741;52.672;13.548;2023-05-07T04:46:20;8.60;99.90
71084;DHT22;58741;52.672;13.548;2023-05-07T04:48:47;8.60;99.90
71084;DHT22;58741;52.672;13.548;2023-05-07T04:51:13;8.60;99.90
71084;DHT22;58741;52.672;13.548;2023-05-07T04:53:39;8.60;99.90
71084;DHT22;58741;52.672;13.548;2023-05-07T04:56:05;8.70;99.90
71084;DHT22;58741;52.672;13.548;2023-05-07T04:58:37;8.70;99.90
71084;DHT22;58741;52.672;13.548;2023-05-07T05:01:04;8.70;99.90
71084;DHT22;58741;52.672;13.548;2023-05-07T05:03:30;8.70;99.90
71084;DHT22;58741;52.672;13.548;2023-05-07T05:05:56;8.80;99.90
71084;DHT22;58741;52.672;13.548;2023-05-07T05:08:25;8.70;99.90
71084;DHT22;58741;52.672;13.548;2023-05-07T05:10:51;8.80;99.90
71084;DHT22;58741;52.672;13.548;2023-05-07T05:13:17;8.80;99.90
71084;DHT22;58741;52.672;13.548;2023-05-07T05:15:43;8.80;99.90
71084;DHT22;58741;52.672;13.548;2023-05-07T05:18:08;8.90;99.90
71084;DHT22;58741;52.672;13.548;2023-05-07T05:20:34;8.90;99.90
71084;DHT22;58741;52.672;13.548;2023-05-07T05:23:00;8.90;99.90
71084;DHT22;58741;52.672;13.548;2023-05-07T05:25:26;9.00;99.90
71084;DHT22;58741;52.672;13.548;2023-05-07T05:27:51;9.00;99.90
71084;DHT22;58741;52.672;13.548;2023-05-07T05:30:17;9.10;99.90
71084;DHT22;58741;52.672;13.548;2023-05-07T05:32:45;9.20;99.90
71084;DHT22;58741;52.672;13.548;2023-05-07T05:35:11;9.30;99.90
71084;DHT22;58741;52.672;13.548;2023-05-07T05:37:37;9.40;99.90
71084;DHT22;58741;52.672;13.548;2023-05-07T05:40:05;9.50;99.90
71084;DHT22;58741;52.672;13.548;2023-05-07T05:42:31;9.60;99.90
71084;DHT22;58741;52.672;13.548;2023-05-07T05:44:57;9.70;99.90
71084;DHT22;58741;52.672;13.548;2023-05-07T05:47:23;9.80;99.90
71084;DHT22;58741;52.672;13.548;2023-05-07T05:49:50;9.90;99.90
71084;DHT22;58741;52.672;13.548;2023-05-07T05:52:16;9.90;99.90
71084;DHT22;58741;52.672;13.548;2023-05-07T05:54:42;9.90;99.90
71084;DHT22;58741;52.672;13.548;2023-05-07T05:57:08;9.90;99.90
71084;DHT22;58741;52.672;13.548;2023-05-07T05:59:34;9.90;99.90
71084;DHT22;58741;52.672;13.548;2023-05-07T06:01:59;10.00;99.90
71084;DHT22;58741;52.672;13.548;2023-05-07T06:04:25;10.10;99.90
71084;DHT22;58741;52.672;13.548;2023-05-07T06:06:51;10.10;99.90
71084;DHT22;58741;52.672;13.548;2023-05-07T06:09:17;10.10;99.90
71084;DHT22;58741;52.672;13.548;2023-05-07T06:11:43;10.10;99.90
71084;DHT22;58741;52.672;13.548;2023-05-07T06:14:10;10.10;99.90
71084;DHT22;58741;52.672;13.548;2023-05-07T06:16:36;10.20;99.90
71084;DHT22;58741;52.672;13.548;2023-05-07T06:19:05;10.30;99.90
71084;DHT22;58741;52.672;13.548;2023-05-07T06:21:30;10.40;99.90
71084;DHT22;58741;52.672;13.548;2023-05-07T06:23:56;10.50;99.90
71084;DHT22;58741;52.672;13.548;2023-05-07T06:26:22;10.60;99.90
71084;DHT22;58741;52.672;13.548;2023-05-07T06:28:48;10.70;99.90
71084;DHT22;58741;52.672;13.548;2023-05-07T06:31:16;10.80;99.90
71084;DHT22;58741;52.672;13.548;2023-05-07T06:33:46;11.00;99.90
71084;DHT22;58741;52.672;13.548;2023-05-07T06:36:12;11.10;99.90
71084;DHT22;58741;52.672;13.548;2023-05-07T06:38:38;11.10;99.90
71084;DHT22;58741;52.672;13.548;2023-05-07T06:41:05;11.10;99.90
71084;DHT22;58741;52.672;13.548;2023-05-07T06:43:31;11.00;99.90
71084;DHT22;58741;52.672;13.548;2023-05-07T06:46:25;11.20;99.90
71084;DHT22;58741;52.672;13.548;2023-05-07T06:48:51;11.40;99.90
71084;DHT22;58741;52.672;13.548;2023-05-07T06:51:17;11.60;99.90
71084;DHT22;58741;52.672;13.548;2023-05-07T06:53:43;11.80;99.90
71084;DHT22;58741;52.672;13.548;2023-05-07T06:56:10;12.10;99.50
71084;DHT22;58741;52.672;13.548;2023-05-07T06:58:37;12.20;99.00
71084;DHT22;58741;52.672;13.548;2023-05-07T07:01:03;12.40;97.50
71084;DHT22;58741;52.672;13.548;2023-05-07T07:03:30;12.60;96.50
71084;DHT22;58741;52.672;13.548;2023-05-07T07:05:56;12.70;97.60
71084;DHT22;58741;52.672;13.548;2023-05-07T07:08:22;12.80;96.10
71084;DHT22;58741;52.672;13.548;2023-05-07T07:10:48;12.90;96.30
71084;DHT22;58741;52.672;13.548;2023-05-07T07:13:14;12.90;95.50
71084;DHT22;58741;52.672;13.548;2023-05-07T07:15:39;13.10;95.60
71084;DHT22;58741;52.672;13.548;2023-05-07T07:18:05;13.20;94.90
71084;DHT22;58741;52.672;13.548;2023-05-07T07:20:31;13.30;94.50
71084;DHT22;58741;52.672;13.548;2023-05-07T07:22:57;13.40;94.40
71084;DHT22;58741;52.672;13.548;2023-05-07T07:25:23;13.60;94.40
71084;DHT22;58741;52.672;13.548;2023-05-07T07:27:49;13.80;94.20
71084;DHT22;58741;52.672;13.548;2023-05-07T07:30:15;13.90;91.90
71084;DHT22;58741;52.672;13.548;2023-05-07T07:32:45;14.00;91.90
71084;DHT22;58741;52.672;13.548;2023-05-07T07:35:11;14.10;92.70
71084;DHT22;58741;52.672;13.548;2023-05-07T07:37:37;14.30;92.60
71084;DHT22;58741;52.672;13.548;2023-05-07T07:40:04;14.40;90.30
71084;DHT22;58741;52.672;13.548;2023-05-07T07:42:29;14.50;90.40
71084;DHT22;58741;52.672;13.548;2023-05-07T07:44:56;14.60;90.70
71084;DHT22;58741;52.672;13.548;2023-05-07T07:47:23;14.80;90.10
71084;DHT22;58741;52.672;13.548;2023-05-07T07:49:55;14.90;88.40
71084;DHT22;58741;52.672;13.548;2023-05-07T07:52:22;15.10;87.60
71084;DHT22;58741;52.672;13.548;2023-05-07T07:54:50;15.20;84.70
71084;DHT22;58741;52.672;13.548;2023-05-07T07:57:16;15.30;85.60
71084;DHT22;58741;52.672;13.548;2023-05-07T07:59:42;15.50;82.20
71084;DHT22;58741;52.672;13.548;2023-05-07T08:02:13;15.50;82.70
71084;DHT22;58741;52.672;13.548;2023-05-07T08:04:39;15.60;83.50
71084;DHT22;58741;52.672;13.548;2023-05-07T08:07:18;15.80;81.70
71084;DHT22;58741;52.672;13.548;2023-05-07T08:09:47;15.90;80.00
71084;DHT22;58741;52.672;13.548;2023-05-07T08:12:15;15.90;78.10
71084;DHT22;58741;52.672;13.548;2023-05-07T08:14:44;16.00;80.30
71084;DHT22;58741;52.672;13.548;2023-05-07T08:17:21;16.10;78.50
71084;DHT22;58741;52.672;13.548;2023-05-07T08:52:27;16.30;76.90
71084;DHT22;58741;52.672;13.548;2023-05-07T09:10:31;16.80;72.60
71084;DHT22;58741;52.672;13.548;2023-05-07T10:36:44;16.90;72.10
71084;DHT22;58741;52.672;13.548;2023-05-07T10:39:16;17.10;69.40
71084;DHT22;58741;52.672;13.548;2023-05-07T10:42:20;17.30;70.90
71084;DHT22;58741;52.672;13.548;2023-05-07T12:03:31;19.90;58.50
71084;DHT22;58741;52.672;13.548;2023-05-07T12:05:59;20.10;61.30
71084;DHT22;58741;52.672;13.548;2023-05-07T12:08:26;20.10;58.90
71084;DHT22;58741;52.672;13.548;2023-05-07T12:10:54;20.30;57.80
71084;DHT22;58741;52.672;13.548;2023-05-07T12:13:25;20.30;58.50
71084;DHT22;58741;52.672;13.548;2023-05-07T12:15:54;20.30;58.10
71084;DHT22;58741;52.672;13.548;2023-05-07T12:18:21;20.20;58.00
71084;DHT22;58741;52.672;13.548;2023-05-07T12:20:48;20.20;60.10
71084;DHT22;58741;52.672;13.548;2023-05-07T12:23:14;20.20;57.30
71084;DHT22;58741;52.672;13.548;2023-05-07T12:25:41;20.30;59.80
71084;DHT22;58741;52.672;13.548;2023-05-07T12:28:19;20.50;58.40
71084;DHT22;58741;52.672;13.548;2023-05-07T12:30:48;20.70;55.90
71084;DHT22;58741;52.672;13.548;2023-05-07T12:33:18;20.60;56.60
71084;DHT22;58741;52.672;13.548;2023-05-07T12:35:44;20.70;58.70
71084;DHT22;58741;52.672;13.548;2023-05-07T12:38:12;20.90;56.40
71084;DHT22;58741;52.672;13.548;2023-05-07T12:40:40;20.90;55.30
71084;DHT22;58741;52.672;13.548;2023-05-07T12:43:06;21.00;56.90
71084;DHT22;58741;52.672;13.548;2023-05-07T12:45:37;21.20;56.70
71084;DHT22;58741;52.672;13.548;2023-05-07T12:48:04;21.50;58.40
71084;DHT22;58741;52.672;13.548;2023-05-07T12:50:33;21.80;57.00
71084;DHT22;58741;52.672;13.548;2023-05-07T12:52:59;21.90;55.90
71084;DHT22;58741;52.672;13.548;2023-05-07T12:55:25;21.80;55.30
71084;DHT22;58741;52.672;13.548;2023-05-07T12:57:52;21.80;56.70
71084;DHT22;58741;52.672;13.548;2023-05-07T13:00:35;21.80;54.90
71084;DHT22;58741;52.672;13.548;2023-05-07T13:03:01;21.80;54.10
71084;DHT22;58741;52.672;13.548;2023-05-07T13:05:27;21.90;54.00
71084;DHT22;58741;52.672;13.548;2023-05-07T13:07:53;21.90;52.70
71084;DHT22;58741;52.672;13.548;2023-05-07T13:10:20;22.00;52.20
71084;DHT22;58741;52.672;13.548;2023-05-07T13:12:45;21.90;52.30
71084;DHT22;58741;52.672;13.548;2023-05-07T13:15:11;21.90;52.30
71084;DHT22;58741;52.672;13.548;2023-05-07T13:17:36;21.90;52.60
71084;DHT22;58741;52.672;13.548;2023-05-07T13:20:02;21.90;49.40
71084;DHT22;58741;52.672;13.548;2023-05-07T13:22:28;21.90;52.20
71084;DHT22;58741;52.672;13.548;2023-05-07T13:24:54;22.00;51.50
71084;DHT22;58741;52.672;13.548;2023-05-07T13:27:20;22.10;52.80
71084;DHT22;58741;52.672;13.548;2023-05-07T13:29:46;22.30;50.70
71084;DHT22;58741;52.672;13.548;2023-05-07T13:32:11;22.40;54.30
71084;DHT22;58741;52.672;13.548;2023-05-07T13:34:37;22.50;50.00
71084;DHT22;58741;52.672;13.548;2023-05-07T13:37:02;22.50;52.10
71084;DHT22;58741;52.672;13.548;2023-05-07T13:41:25;22.80;50.10
71084;DHT22;58741;52.672;13.548;2023-05-07T13:43:51;23.00;52.20
71084;DHT22;58741;52.672;13.548;2023-05-07T13:46:17;23.10;51.10
71084;DHT22;58741;52.672;13.548;2023-05-07T13:48:42;23.00;51.40
71084;DHT22;58741;52.672;13.548;2023-05-07T13:51:08;22.80;50.30
71084;DHT22;58741;52.672;13.548;2023-05-07T13:53:33;22.50;50.60
71084;DHT22;58741;52.672;13.548;2023-05-07T13:55:59;22.30;51.40
71084;DHT22;58741;52.672;13.548;2023-05-07T13:58:25;22.20;52.30
71084;DHT22;58741;52.672;13.548;2023-05-07T14:00:50;22.00;52.70
71084;DHT22;58741;52.672;13.548;2023-05-07T14:03:16;21.80;52.20
71084;DHT22;58741;52.672;13.548;2023-05-07T14:05:42;21.70;53.00
71084;DHT22;58741;52.672;13.548;2023-05-07T14:08:08;21.90;53.90
71084;DHT22;58741;52.672;13.548;2023-05-07T14:10:34;22.20;51.10
71084;DHT22;58741;52.672;13.548;2023-05-07T14:13:29;22.40;49.20
71084;DHT22;58741;52.672;13.548;2023-05-07T14:15:56;22.50;50.50
71084;DHT22;58741;52.672;13.548;2023-05-07T14:18:22;22.50;50.30
71084;DHT22;58741;52.672;13.548;2023-05-07T14:20:48;22.50;48.00
71084;DHT22;58741;52.672;13.548;2023-05-07T14:23:14;22.40;49.60
71084;DHT22;58741;52.672;13.548;2023-05-07T14:25:40;22.40;48.40
71084;DHT22;58741;52.672;13.548;2023-05-07T14:28:09;22.30;48.40
71084;DHT22;58741;52.672;13.548;2023-05-07T14:30:34;22.10;48.30
71084;DHT22;58741;52.672;13.548;2023-05-07T14:33:00;21.70;49.80
71084;DHT22;58741;52.672;13.548;2023-05-07T14:35:25;21.70;50.80
71084;DHT22;58741;52.672;13.548;2023-05-07T14:37:51;21.60;51.40
71084;DHT22;58741;52.672;13.548;2023-05-07T14:40:17;21.70;50.40
71084;DHT22;58741;52.672;13.548;2023-05-07T14:42:42;21.80;49.70
71084;DHT22;58741;52.672;13.548;2023-05-07T14:45:08;21.60;49.90
71084;DHT22;58741;52.672;13.548;2023-05-07T14:47:34;21.40;49.10
71084;DHT22;58741;52.672;13.548;2023-05-07T14:50:01;21.20;50.30
71084;DHT22;58741;52.672;13.548;2023-05-07T14:52:26;21.40;52.80
71084;DHT22;58741;52.672;13.548;2023-05-07T14:54:52;21.70;50.00
71084;DHT22;58741;52.672;13.548;2023-05-07T14:57:18;21.70;50.60
71084;DHT22;58741;52.672;13.548;2023-05-07T14:59:44;21.50;49.50
71084;DHT22;58741;52.672;13.548;2023-05-07T15:02:11;21.20;51.40
71084;DHT22;58741;52.672;13.548;2023-05-07T15:04:37;21.10;52.30
71084;DHT22;58741;52.672;13.548;2023-05-07T15:07:14;21.30;53.50
71084;DHT22;58741;52.672;13.548;2023-05-07T15:09:41;21.60;51.80
71084;DHT22;58741;52.672;13.548;2023-05-07T15:12:07;21.80;49.90
71084;DHT22;58741;52.672;13.548;2023-05-07T15:14:33;22.00;50.10
71084;DHT22;58741;52.672;13.548;2023-05-07T15:16:59;22.00;48.60
71084;DHT22;58741;52.672;13.548;2023-05-07T15:19:24;21.90;49.80
71084;DHT22;58741;52.672;13.548;2023-05-07T15:21:54;22.10;50.70
71084;DHT22;58741;52.672;13.548;2023-05-07T15:24:22;22.30;49.40
71084;DHT22;58741;52.672;13.548;2023-05-07T15:26:48;22.30;49.70
71084;DHT22;58741;52.672;13.548;2023-05-07T15:29:13;22.40;48.90
71084;DHT22;58741;52.672;13.548;2023-05-07T15:31:39;22.20;49.50
71084;DHT22;58741;52.672;13.548;2023-05-07T15:34:05;22.00;50.00
71084;DHT22;58741;52.672;13.548;2023-05-07T15:36:30;21.70;49.40
71084;DHT22;58741;52.672;13.548;2023-05-07T15:38:57;21.40;50.50
71084;DHT22;58741;52.672;13.548;2023-05-07T15:41:22;21.00;49.70
71084;DHT22;58741;52.672;13.548;2023-05-07T15:43:50;20.80;51.40
71084;DHT22;58741;52.672;13.548;2023-05-07T15:46:21;20.50;51.50
71084;DHT22;58741;52.672;13.548;2023-05-07T15:48:48;20.20;52.20
71084;DHT22;58741;52.672;13.548;2023-05-07T15:51:14;19.90;52.50
71084;DHT22;58741;52.672;13.548;2023-05-07T15:53:40;19.70;53.30
71084;DHT22;58741;52.672;13.548;2023-05-07T15:56:06;19.80;54.30
71084;DHT22;58741;52.672;13.548;2023-05-07T15:58:32;19.70;53.40
71084;DHT22;58741;52.672;13.548;2023-05-07T16:00:58;19.70;53.30
71084;DHT22;58741;52.672;13.548;2023-05-07T16:03:26;19.40;52.90
71084;DHT22;58741;52.672;13.548;2023-05-07T16:05:53;19.30;53.40
71084;DHT22;58741;52.672;13.548;2023-05-07T16:08:22;19.10;54.10
71084;DHT22;58741;52.672;13.548;2023-05-07T16:10:47;19.00;54.10
71084;DHT22;58741;52.672;13.548;2023-05-07T16:13:13;18.90;53.60
71084;DHT22;58741;52.672;13.548;2023-05-07T16:15:39;18.80;54.50
71084;DHT22;58741;52.672;13.548;2023-05-07T16:18:04;18.60;54.80
71084;DHT22;58741;52.672;13.548;2023-05-07T16:20:30;18.40;55.70
71084;DHT22;58741;52.672;13.548;2023-05-07T16:22:56;18.30;55.40
71084;DHT22;58741;52.672;13.548;2023-05-07T16:25:22;18.20;56.20
71084;DHT22;58741;52.672;13.548;2023-05-07T16:27:48;18.20;55.70
71084;DHT22;58741;52.672;13.548;2023-05-07T16:30:13;18.10;56.20
71084;DHT22;58741;52.672;13.548;2023-05-07T16:32:39;18.00;56.70
71084;DHT22;58741;52.672;13.548;2023-05-07T16:35:05;17.80;56.80
71084;DHT22;58741;52.672;13.548;2023-05-07T16:37:32;17.70;56.00
71084;DHT22;58741;52.672;13.548;2023-05-07T16:40:00;17.50;56.10
71084;DHT22;58741;52.672;13.548;2023-05-07T16:42:27;17.30;56.60
71084;DHT22;58741;52.672;13.548;2023-05-07T16:44:53;17.20;57.00
71084;DHT22;58741;52.672;13.548;2023-05-07T16:47:19;17.10;57.70
71084;DHT22;58741;52.672;13.548;2023-05-07T16:49:45;16.90;57.80
71084;DHT22;58741;52.672;13.548;2023-05-07T16:52:11;17.00;57.90
71084;DHT22;58741;52.672;13.548;2023-05-07T16:54:36;17.10;57.90
71084;DHT22;58741;52.672;13.548;2023-05-07T16:57:02;17.20;57.50
71084;DHT22;58741;52.672;13.548;2023-05-07T16:59:28;17.10;58.00
71084;DHT22;58741;52.672;13.548;2023-05-07T17:02:00;17.10;58.70
71084;DHT22;58741;52.672;13.548;2023-05-07T17:04:28;17.10;58.00
71084;DHT22;58741;52.672;13.548;2023-05-07T17:06:58;17.00;58.60
71084;DHT22;58741;52.672;13.548;2023-05-07T17:09:26;16.80;57.60
71084;DHT22;58741;52.672;13.548;2023-05-07T17:11:52;16.60;58.10
71084;DHT22;58741;52.672;13.548;2023-05-07T17:14:18;16.30;58.70
71084;DHT22;58741;52.672;13.548;2023-05-07T17:16:43;16.20;59.60
71084;DHT22;58741;52.672;13.548;2023-05-07T17:19:09;16.00;60.70
71084;DHT22;58741;52.672;13.548;2023-05-07T17:21:34;15.90;60.70
71084;DHT22;58741;52.672;13.548;2023-05-07T17:24:00;15.80;61.10
71084;DHT22;58741;52.672;13.548;2023-05-07T17:26:26;15.70;61.70
71084;DHT22;58741;52.672;13.548;2023-05-07T17:28:52;15.50;61.70
71084;DHT22;58741;52.672;13.548;2023-05-07T17:31:18;15.50;62.00
71084;DHT22;58741;52.672;13.548;2023-05-07T17:33:44;15.40;61.60
71084;DHT22;58741;52.672;13.548;2023-05-07T17:36:10;15.30;61.90
71084;DHT22;58741;52.672;13.548;2023-05-07T17:38:36;15.20;61.90
71084;DHT22;58741;52.672;13.548;2023-05-07T17:41:04;15.00;61.80
71084;DHT22;58741;52.672;13.548;2023-05-07T17:43:33;14.90;62.40
71084;DHT22;58741;52.672;13.548;2023-05-07T17:45:59;14.80;62.20
71084;DHT22;58741;52.672;13.548;2023-05-07T17:48:25;14.70;62.50
71084;DHT22;58741;52.672;13.548;2023-05-07T17:50:50;14.60;63.00
71084;DHT22;58741;52.672;13.548;2023-05-07T17:53:17;14.60;62.70
71084;DHT22;58741;52.672;13.548;2023-05-07T17:55:43;14.50;62.90
71084;DHT22;58741;52.672;13.548;2023-05-07T17:58:10;14.40;62.60
71084;DHT22;58741;52.672;13.548;2023-05-07T18:00:38;14.40;63.50
71084;DHT22;58741;52.672;13.548;2023-05-07T18:03:04;14.30;63.90
71084;DHT22;58741;52.672;13.548;2023-05-07T18:05:30;14.20;64.00
71084;DHT22;58741;52.672;13.548;2023-05-07T18:07:55;14.10;64.10
71084;DHT22;58741;52.672;13.548;2023-05-07T18:10:22;14.10;64.60
71084;DHT22;58741;52.672;13.548;2023-05-07T18:12:48;14.00;65.10
71084;DHT22;58741;52.672;13.548;2023-05-07T18:15:13;13.90;65.20
71084;DHT22;58741;52.672;13.548;2023-05-07T18:17:39;13.80;65.10
71084;DHT22;58741;52.672;13.548;2023-05-07T18:20:06;13.80;65.60
71084;DHT22;58741;52.672;13.548;2023-05-07T18:22:36;13.70;65.90
71084;DHT22;58741;52.672;13.548;2023-05-07T18:25:09;13.70;66.20
71084;DHT22;58741;52.672;13.548;2023-05-07T18:27:46;13.50;66.30
71084;DHT22;58741;52.672;13.548;2023-05-07T18:30:13;13.50;66.90
71084;DHT22;58741;52.672;13.548;2023-05-07T18:32:39;13.40;66.90
71084;DHT22;58741;52.672;13.548;2023-05-07T18:35:05;13.40;67.10
71084;DHT22;58741;52.672;13.548;2023-05-07T18:37:32;13.30;67.60
71084;DHT22;58741;52.672;13.548;2023-05-07T18:39:58;13.20;67.60
71084;DHT22;58741;52.672;13.548;2023-05-07T18:42:28;13.20;68.00
71084;DHT22;58741;52.672;13.548;2023-05-07T18:44:54;13.00;68.00
71084;DHT22;58741;52.672;13.548;2023-05-07T18:47:24;13.00;68.20
71084;DHT22;58741;52.672;13.548;2023-05-07T18:49:51;13.00;68.60
71084;DHT22;58741;52.672;13.548;2023-05-07T18:52:18;12.90;68.80
71084;DHT22;58741;52.672;13.548;2023-05-07T18:54:47;12.80;69.10
71084;DHT22;58741;52.672;13.548;2023-05-07T18:57:14;12.70;69.50